createdAt,value
2023-06-11T00:01:34.371Z,101392.19
2023-06-11T00:04:06.035Z,101391.91
2023-06-11T00:06:37.772Z,101397.09
2023-06-11T00:09:09.286Z,101398.84
2023-06-11T00:11:40.819Z,101399.16
2023-06-11T00:14:12.634Z,101397.69
2023-06-11T00:16:44.409Z,101391.84
2023-06-11T00:19:16.021Z,101396.94
2023-06-11T00:21:47.515Z,101391.72
2023-06-11T00:24:19.433Z,101396.47
2023-06-11T00:26:51.082Z,101398.81
2023-06-11T00:29:22.749Z,101396.50
2023-06-11T00:31:54.303Z,101397.22
2023-06-11T00:34:25.975Z,101395.75
2023-06-11T00:36:57.476Z,101394.34
2023-06-11T00:39:29.287Z,101393.53
2023-06-11T00:42:00.840Z,101396.94
2023-06-11T00:44:32.910Z,101398.50
2023-06-11T00:47:04.719Z,101396.06
2023-06-11T00:49:36.626Z,101396.88
2023-06-11T00:52:08.401Z,101409.53
2023-06-11T00:54:39.924Z,101407.22
2023-06-11T00:57:11.746Z,101411.47
2023-06-11T00:59:43.229Z,101406.16
2023-06-11T01:02:14.911Z,101409.69
2023-06-11T01:04:46.488Z,101407.34
2023-06-11T01:07:18.402Z,101402.88
2023-06-11T01:09:49.900Z,101409.25
2023-06-11T01:12:21.754Z,101411.44
2023-06-11T01:14:53.240Z,101409.47
2023-06-11T01:17:25.248Z,101406.28
2023-06-11T01:19:57.105Z,101410.03
2023-06-11T01:22:28.964Z,101408.91
2023-06-11T01:25:00.997Z,101412.28
2023-06-11T01:27:32.489Z,101420.16
2023-06-11T01:30:04.380Z,101415.50
2023-06-11T01:32:35.929Z,101421.53
2023-06-11T01:35:07.990Z,101417.06
2023-06-11T01:37:39.771Z,101422.59
2023-06-11T01:40:11.666Z,101353.28
2023-06-11T01:42:43.195Z,101422.66
2023-06-11T01:45:15.124Z,101419.78
2023-06-11T01:47:46.697Z,101420.31
2023-06-11T01:50:18.278Z,101425.69
2023-06-11T01:52:50.168Z,101429.72
2023-06-11T01:55:22.044Z,101423.38
2023-06-11T01:57:54.011Z,101432.56
2023-06-11T02:00:25.570Z,101428.41
2023-06-11T02:02:57.950Z,101428.25
2023-06-11T02:05:29.632Z,101426.63
2023-06-11T02:08:01.581Z,101428.13
2023-06-11T02:10:33.103Z,101425.47
2023-06-11T02:13:04.920Z,101431.13
2023-06-11T02:15:36.453Z,101429.47
2023-06-11T02:18:08.468Z,101430.31
2023-06-11T02:20:40.093Z,101438.84
2023-06-11T02:23:11.817Z,101428.63
2023-06-11T02:25:43.390Z,101431.31
2023-06-11T02:28:15.103Z,101424.66
2023-06-11T02:30:46.661Z,101420.97
2023-06-11T02:33:18.605Z,101426.16
2023-06-11T02:35:50.491Z,101429.50
2023-06-11T02:38:22.020Z,101434.19
2023-06-11T02:40:53.599Z,101428.84
2023-06-11T02:43:25.123Z,101440.19
2023-06-11T02:45:56.927Z,101440.38
2023-06-11T02:48:28.521Z,101450.56
2023-06-11T02:51:00.368Z,101443.88
2023-06-11T02:53:31.882Z,101446.22
2023-06-11T02:56:03.836Z,101452.56
2023-06-11T02:58:35.419Z,101441.34
2023-06-11T03:01:07.344Z,101444.56
2023-06-11T03:03:38.951Z,101444.38
2023-06-11T03:06:10.943Z,101454.25
2023-06-11T03:08:42.802Z,101444.03
2023-06-11T03:11:14.301Z,101452.88
2023-06-11T03:13:46.205Z,101461.75
2023-06-11T03:16:17.899Z,101461.41
2023-06-11T03:18:49.737Z,101460.91
2023-06-11T03:21:21.264Z,101465.91
2023-06-11T03:23:53.284Z,101464.09
2023-06-11T03:26:24.849Z,101460.25
2023-06-11T03:28:56.846Z,101459.41
2023-06-11T03:31:28.440Z,101461.59
2023-06-11T03:34:00.379Z,101464.94
2023-06-11T03:36:32.167Z,101465.44
2023-06-11T03:39:04.193Z,101466.63
2023-06-11T03:41:35.919Z,101465.28
2023-06-11T03:44:07.440Z,101468.13
2023-06-11T03:46:39.350Z,101466.25
2023-06-11T03:49:10.933Z,101469.13
2023-06-11T03:51:42.811Z,101475.47
2023-06-11T03:54:14.350Z,101469.13
2023-06-11T03:56:46.233Z,101481.03
2023-06-11T03:59:17.783Z,101474.00
2023-06-11T04:01:49.993Z,101470.50
2023-06-11T04:04:21.576Z,101477.19
2023-06-11T04:06:53.584Z,101467.81
2023-06-11T04:09:25.357Z,101479.34
2023-06-11T04:11:57.313Z,101477.81
2023-06-11T04:14:29.194Z,101479.34
2023-06-11T04:17:00.846Z,101475.16
2023-06-11T04:19:32.893Z,101483.69
2023-06-11T04:22:04.486Z,101483.03
2023-06-11T04:24:36.558Z,101488.03
2023-06-11T04:27:08.094Z,101478.31
2023-06-11T04:29:39.945Z,101482.16
2023-06-11T04:32:11.522Z,101483.50
2023-06-11T04:34:43.196Z,101485.34
2023-06-11T04:37:14.731Z,101489.84
2023-06-11T04:39:46.609Z,101481.78
2023-06-11T04:42:18.146Z,101493.47
2023-06-11T04:44:50.032Z,101491.94
2023-06-11T04:47:22.005Z,101484.50
2023-06-11T04:49:53.545Z,101487.56
2023-06-11T04:52:25.401Z,101494.06
2023-06-11T04:54:56.949Z,101479.28
2023-06-11T04:57:28.682Z,101489.84
2023-06-11T05:00:00.236Z,101489.59
2023-06-11T05:02:32.056Z,101481.38
2023-06-11T05:05:03.657Z,101494.41
2023-06-11T05:07:35.721Z,101485.53
2023-06-11T05:10:07.318Z,101489.66
2023-06-11T05:12:39.420Z,101486.78
2023-06-11T05:15:11.174Z,101491.78
2023-06-11T05:17:43.360Z,101488.63
2023-06-11T05:20:14.943Z,101489.50
2023-06-11T05:22:46.754Z,101481.16
2023-06-11T05:25:18.537Z,101479.84
2023-06-11T05:27:50.069Z,101488.13
2023-06-11T05:30:21.837Z,101485.69
2023-06-11T05:32:53.446Z,101477.38
2023-06-11T05:35:25.203Z,101479.81
2023-06-11T05:37:56.747Z,101489.00
2023-06-11T05:40:28.628Z,101478.88
2023-06-11T05:43:00.181Z,101482.38
2023-06-11T05:45:32.330Z,101481.94
2023-06-11T05:48:03.949Z,101485.25
2023-06-11T05:50:35.862Z,101487.19
2023-06-11T05:53:07.734Z,101487.50
2023-06-11T05:55:39.481Z,101485.81
2023-06-11T05:58:11.333Z,101489.53
2023-06-11T06:00:42.887Z,101489.78
2023-06-11T06:03:14.685Z,101487.59
2023-06-11T06:05:46.302Z,101482.44
2023-06-11T06:08:18.167Z,101486.97
2023-06-11T06:10:49.711Z,101488.69
2023-06-11T06:13:21.676Z,101489.59
2023-06-11T06:15:53.247Z,101496.97
2023-06-11T06:18:25.068Z,101490.97
2023-06-11T06:20:56.627Z,101498.94
2023-06-11T06:23:28.495Z,101489.81
2023-06-11T06:26:00.065Z,101482.66
2023-06-11T06:28:31.909Z,101409.66
2023-06-11T06:31:03.631Z,101485.44
2023-06-11T06:33:35.364Z,101478.94
2023-06-11T06:36:07.113Z,101488.84
2023-06-11T06:38:38.662Z,101482.94
2023-06-11T06:41:10.385Z,101487.75
2023-06-11T06:43:41.873Z,101495.84
2023-06-11T06:46:13.733Z,101493.38
2023-06-11T06:48:45.448Z,101482.34
2023-06-11T06:51:17.239Z,101475.38
2023-06-11T06:53:48.734Z,101481.59
2023-06-11T06:56:20.492Z,101488.53
2023-06-11T06:58:52.463Z,101479.09
2023-06-11T07:01:24.308Z,101485.72
2023-06-11T07:03:56.387Z,101487.38
2023-06-11T07:06:27.898Z,101492.81
2023-06-11T07:08:59.718Z,101490.13
2023-06-11T07:11:31.218Z,101488.34
2023-06-11T07:14:03.190Z,101487.91
2023-06-11T07:16:34.768Z,101488.00
2023-06-11T07:19:06.698Z,101488.22
2023-06-11T07:21:38.337Z,101489.97
2023-06-11T07:24:10.102Z,101484.47
2023-06-11T07:26:41.676Z,101484.75
2023-06-11T07:29:13.505Z,101481.28
2023-06-11T07:31:45.368Z,101476.56
2023-06-11T07:34:16.905Z,101482.72
2023-06-11T07:36:48.847Z,101473.47
2023-06-11T07:39:20.339Z,101473.75
2023-06-11T07:41:52.157Z,101487.31
2023-06-11T07:44:23.648Z,101487.66
2023-06-11T07:46:55.478Z,101481.84
2023-06-11T07:49:27.058Z,101485.66
2023-06-11T07:51:58.893Z,101487.41
2023-06-11T07:54:30.391Z,101481.81
2023-06-11T07:57:01.923Z,101476.53
2023-06-11T07:59:33.676Z,101482.16
2023-06-11T08:02:05.475Z,101483.75
2023-06-11T08:04:37.180Z,101487.88
2023-06-11T08:07:08.696Z,101482.13
2023-06-11T08:09:40.563Z,101479.34
2023-06-11T08:12:12.083Z,101483.47
2023-06-11T08:14:43.905Z,101478.19
2023-06-11T08:17:15.400Z,101483.66
2023-06-11T08:19:47.366Z,101478.31
2023-06-11T08:22:18.876Z,101479.06
2023-06-11T08:24:50.839Z,101489.25
2023-06-11T08:27:22.658Z,101473.41
2023-06-11T08:29:54.489Z,101481.50
2023-06-11T08:32:26.688Z,101478.66
2023-06-11T08:34:58.418Z,101476.53
2023-06-11T08:37:30.537Z,101468.25
2023-06-11T08:40:02.064Z,101468.34
2023-06-11T08:42:33.935Z,101466.59
2023-06-11T08:45:05.457Z,101469.81
2023-06-11T08:47:37.155Z,101463.34
2023-06-11T08:50:08.917Z,101457.81
2023-06-11T08:52:40.891Z,101459.13
2023-06-11T08:55:12.391Z,101455.56
2023-06-11T08:57:44.166Z,101458.81
2023-06-11T09:00:15.660Z,101455.56
2023-06-11T09:02:47.594Z,101456.84
2023-06-11T09:05:19.625Z,101456.66
2023-06-11T09:07:51.129Z,101458.94
2023-06-11T09:10:23.041Z,101457.13
2023-06-11T09:12:56.802Z,101446.84
2023-06-11T09:15:29.566Z,101449.84
2023-06-11T09:18:01.159Z,101454.06
2023-06-11T09:20:33.030Z,101443.88
2023-06-11T09:23:04.538Z,101447.84
2023-06-11T09:25:36.367Z,101445.63
2023-06-11T09:28:07.845Z,101445.63
2023-06-11T09:30:39.724Z,101446.44
2023-06-11T09:33:11.667Z,101441.47
2023-06-11T09:35:43.157Z,101444.34
2023-06-11T09:38:15.019Z,101437.88
2023-06-11T09:40:46.517Z,101436.28
2023-06-11T09:43:18.284Z,101436.69
2023-06-11T09:45:49.833Z,101434.78
2023-06-11T09:48:21.795Z,101432.22
2023-06-11T09:50:53.290Z,101427.81
2023-06-11T09:53:25.153Z,101429.22
2023-06-11T09:56:09.310Z,101432.78
2023-06-11T09:58:42.819Z,101428.78
2023-06-11T10:01:14.650Z,101425.44
2023-06-11T10:03:46.216Z,101429.69
2023-06-11T10:06:17.932Z,101430.53
2023-06-11T10:08:49.443Z,101421.84
2023-06-11T10:11:21.478Z,101436.66
2023-06-11T10:13:52.959Z,101420.59
2023-06-11T10:16:24.764Z,101420.41
2023-06-11T10:18:56.322Z,101406.78
2023-06-11T10:21:28.302Z,101422.06
2023-06-11T10:24:00.029Z,101414.44
2023-06-11T10:26:32.069Z,101405.50
2023-06-11T10:29:06.303Z,101412.66
2023-06-11T10:31:38.674Z,101412.31
2023-06-11T10:34:10.561Z,101413.13
2023-06-11T10:36:42.097Z,101396.78
2023-06-11T10:39:13.926Z,101394.94
2023-06-11T10:41:45.447Z,101405.91
2023-06-11T10:44:17.272Z,101403.41
2023-06-11T10:46:48.802Z,101403.72
2023-06-11T10:49:20.669Z,101408.69
2023-06-11T10:51:52.146Z,101406.09
2023-06-11T10:54:24.106Z,101396.97
2023-06-11T10:56:55.921Z,101396.13
2023-06-11T10:59:27.755Z,101402.31
2023-06-11T11:01:59.489Z,101401.50
2023-06-11T11:04:31.112Z,101409.50
2023-06-11T11:07:02.807Z,101396.84
2023-06-11T11:09:34.307Z,101398.28
2023-06-11T11:12:06.091Z,101397.16
2023-06-11T11:14:37.608Z,101396.88
2023-06-11T11:17:09.576Z,101390.34
2023-06-11T11:19:41.148Z,101393.34
2023-06-11T11:22:13.869Z,101387.28
2023-06-11T11:24:45.382Z,101385.44
2023-06-11T11:27:16.888Z,101380.75
2023-06-11T11:29:48.707Z,101382.31
2023-06-11T11:32:20.247Z,101371.97
2023-06-11T11:34:52.081Z,101369.59
2023-06-11T11:37:23.622Z,101369.06
2023-06-11T11:39:55.544Z,101356.09
2023-06-11T11:42:27.029Z,101364.47
2023-06-11T11:44:58.876Z,101359.63
2023-06-11T11:47:30.452Z,101353.13
2023-06-11T11:50:02.322Z,101364.75
2023-06-11T11:52:33.811Z,101353.00
2023-06-11T11:55:05.723Z,101345.47
2023-06-11T11:57:37.252Z,101347.81
2023-06-11T12:00:08.851Z,101343.03
2023-06-11T12:02:40.751Z,101346.72
2023-06-11T12:05:12.304Z,101338.91
2023-06-11T12:07:44.121Z,101338.53
2023-06-11T12:10:15.747Z,101343.19
2023-06-11T12:12:47.564Z,101340.22
2023-06-11T12:15:19.081Z,101343.47
2023-06-11T12:17:50.631Z,101340.28
2023-06-11T12:20:22.179Z,101332.34
2023-06-11T12:22:54.054Z,101335.16
2023-06-11T12:25:26.160Z,101339.88
2023-06-11T12:27:58.030Z,101342.28
2023-06-11T12:30:29.984Z,101344.41
2023-06-11T12:33:01.629Z,101332.19
2023-06-11T12:35:33.539Z,101324.91
2023-06-11T12:38:05.048Z,101324.25
2023-06-11T12:40:37.101Z,101319.31
2023-06-11T12:43:08.594Z,101320.19
2023-06-11T12:45:40.363Z,101324.69
2023-06-11T12:48:11.984Z,101319.03
2023-06-11T12:50:44.102Z,101310.50
2023-06-11T12:53:15.646Z,101322.13
2023-06-11T12:55:47.626Z,101327.28
2023-06-11T12:58:19.148Z,101326.09
2023-06-11T13:00:50.676Z,101333.47
2023-06-11T13:03:22.666Z,101322.41
2023-06-11T13:05:54.168Z,101312.00
2023-06-11T13:08:26.050Z,101314.34
2023-06-11T13:10:57.548Z,101319.28
2023-06-11T13:13:29.409Z,101317.38
2023-06-11T13:16:00.931Z,101323.41
2023-06-11T13:18:32.805Z,101322.13
2023-06-11T13:21:04.302Z,101317.78
2023-06-11T13:23:36.159Z,101308.03
2023-06-11T13:26:07.685Z,101297.44
2023-06-11T13:28:39.510Z,101294.72
2023-06-11T13:31:11.061Z,101294.34
2023-06-11T13:33:42.640Z,101293.19
2023-06-11T13:36:14.342Z,101287.84
2023-06-11T13:38:45.849Z,101289.00
2023-06-11T13:41:17.720Z,101281.78
2023-06-11T13:43:49.218Z,101296.50
2023-06-11T13:46:21.100Z,101295.47
2023-06-11T13:48:52.637Z,101289.84
2023-06-11T13:51:24.646Z,101289.38
2023-06-11T13:53:56.200Z,101282.81
2023-06-11T13:56:27.830Z,101276.47
2023-06-11T13:58:59.344Z,101290.13
2023-06-11T14:01:31.168Z,101283.16
2023-06-11T14:04:02.679Z,101285.19
2023-06-11T14:06:34.508Z,101294.09
2023-06-11T14:09:06.376Z,101296.25
2023-06-11T14:11:38.213Z,101292.41
2023-06-11T14:14:10.043Z,101295.47
2023-06-11T14:16:41.603Z,101289.16
2023-06-11T14:19:13.500Z,101288.31
2023-06-11T14:21:45.000Z,101289.97
2023-06-11T14:24:17.093Z,101293.22
2023-06-11T14:26:48.645Z,101284.19
2023-06-11T14:29:20.363Z,101277.69
2023-06-11T14:31:51.933Z,101275.13
2023-06-11T14:34:23.919Z,101278.69
2023-06-11T14:36:55.409Z,101278.50
2023-06-11T14:39:27.140Z,101279.22
2023-06-11T14:41:59.020Z,101277.34
2023-06-11T14:44:31.062Z,101270.91
2023-06-11T14:47:02.949Z,101271.91
2023-06-11T14:49:34.434Z,101261.00
2023-06-11T14:52:06.247Z,101261.06
2023-06-11T14:54:37.773Z,101260.97
2023-06-11T14:57:09.626Z,101265.78
2023-06-11T14:59:41.143Z,101255.78
2023-06-11T15:02:13.014Z,101250.56
2023-06-11T15:04:44.553Z,101255.63
2023-06-11T15:07:29.784Z,101252.38
2023-06-11T15:10:06.042Z,101248.84
2023-06-11T15:12:38.043Z,101242.06
2023-06-11T15:15:09.768Z,101243.63
2023-06-11T15:17:41.295Z,101256.84
2023-06-11T15:20:13.322Z,101251.03
2023-06-11T15:22:45.086Z,101246.66
2023-06-11T15:25:16.967Z,101237.28
2023-06-11T15:27:48.494Z,101241.50
2023-06-11T15:30:20.159Z,101236.72
2023-06-11T15:32:51.699Z,101246.69
2023-06-11T15:35:23.657Z,101242.72
2023-06-11T15:37:55.163Z,101238.94
2023-06-11T15:40:27.001Z,101230.72
2023-06-11T15:42:58.849Z,101237.66
2023-06-11T15:45:30.697Z,101232.47
2023-06-11T15:48:02.386Z,101230.50
2023-06-11T15:50:33.974Z,101222.75
2023-06-11T15:53:05.964Z,101229.69
2023-06-11T15:55:37.472Z,101229.69
2023-06-11T15:58:09.316Z,101227.03
2023-06-11T16:00:40.805Z,101222.44
2023-06-11T16:03:12.726Z,101225.00
2023-06-11T16:05:44.237Z,101223.16
2023-06-11T16:08:16.121Z,101225.22
2023-06-11T16:10:47.647Z,101224.09
2023-06-11T16:13:19.543Z,101234.06
2023-06-11T16:15:51.270Z,101225.84
2023-06-11T16:18:22.855Z,101234.31
2023-06-11T16:20:54.711Z,101232.34
2023-06-11T16:23:26.202Z,101238.75
2023-06-11T16:25:58.096Z,101237.47
2023-06-11T16:28:29.615Z,101238.19
2023-06-11T16:31:01.624Z,101236.66
2023-06-11T16:33:47.637Z,101234.06
2023-06-11T16:36:24.976Z,101233.06
2023-06-11T16:39:01.226Z,101224.84
2023-06-11T16:41:38.351Z,101231.28
2023-06-11T16:44:10.212Z,101233.97
2023-06-11T16:46:41.873Z,101235.88
2023-06-11T16:49:13.851Z,101232.16
2023-06-11T16:51:45.387Z,101226.44
2023-06-11T16:54:18.918Z,101227.06
2023-06-11T16:56:50.841Z,101221.59
2023-06-11T16:59:22.620Z,101221.31
2023-06-11T17:01:54.131Z,101221.69
2023-06-11T17:04:26.034Z,101167.34
2023-06-11T17:06:58.106Z,101224.69
2023-06-11T17:09:29.944Z,101219.31
2023-06-11T17:12:01.821Z,101219.97
2023-06-11T17:14:33.367Z,101228.00
2023-06-11T17:17:05.343Z,101229.78
2023-06-11T17:19:36.968Z,101225.00
2023-06-11T17:22:08.769Z,101231.59
2023-06-11T17:24:40.374Z,101226.00
2023-06-11T17:27:12.542Z,101226.88
2023-06-11T17:29:44.049Z,101228.88
2023-06-11T17:32:15.866Z,101223.91
2023-06-11T17:34:47.406Z,101225.66
2023-06-11T17:37:19.111Z,101222.06
2023-06-11T17:39:50.638Z,101217.22
2023-06-11T17:42:22.490Z,101217.75
2023-06-11T17:44:54.284Z,101219.38
2023-06-11T17:47:26.189Z,101220.81
2023-06-11T17:49:58.035Z,101227.41
2023-06-11T17:52:29.588Z,101224.25
2023-06-11T17:55:01.618Z,101224.72
2023-06-11T17:57:33.110Z,101229.94
2023-06-11T18:00:04.859Z,101221.97
2023-06-11T18:02:36.361Z,101222.91
2023-06-11T18:05:08.510Z,101222.06
2023-06-11T18:07:40.140Z,101217.47
2023-06-11T18:10:11.981Z,101228.47
2023-06-11T18:12:43.470Z,101221.25
2023-06-11T18:17:49.799Z,101222.19
2023-06-11T18:20:21.779Z,101220.78
2023-06-11T18:22:53.261Z,101216.28
2023-06-11T18:25:25.254Z,101216.41
2023-06-11T18:27:57.109Z,101220.19
2023-06-11T18:30:29.057Z,101225.03
2023-06-11T18:33:00.903Z,101223.03
2023-06-11T18:35:32.451Z,101229.66
2023-06-11T18:38:04.244Z,101219.03
2023-06-11T18:40:35.748Z,101227.06
2023-06-11T18:43:07.278Z,101232.72
2023-06-11T18:45:38.869Z,101234.38
2023-06-11T18:48:10.849Z,101229.69
2023-06-11T18:50:42.352Z,101230.28
2023-06-11T18:53:14.310Z,101235.06
2023-06-11T18:55:45.798Z,101235.66
2023-06-11T18:58:18.443Z,101236.47
2023-06-11T19:00:50.192Z,101235.84
2023-06-11T19:03:21.823Z,101242.66
2023-06-11T19:05:53.837Z,101244.22
2023-06-11T19:08:25.367Z,101245.81
2023-06-11T19:10:57.294Z,101243.44
2023-06-11T19:13:28.799Z,101246.66
2023-06-11T19:16:00.802Z,101247.91
2023-06-11T19:18:32.301Z,101246.41
2023-06-11T19:21:04.137Z,101258.63
2023-06-11T19:23:35.632Z,101241.69
2023-06-11T19:26:08.670Z,101254.66
2023-06-11T19:28:40.165Z,101251.78
2023-06-11T19:31:11.944Z,101245.25
2023-06-11T19:33:43.549Z,101253.69
2023-06-11T19:36:15.147Z,101252.56
2023-06-11T19:38:46.706Z,101258.63
2023-06-11T19:41:18.285Z,101262.22
2023-06-11T19:43:50.122Z,101255.50
2023-06-11T19:46:23.992Z,101261.16
2023-06-11T19:48:57.434Z,101270.38
2023-06-11T19:51:28.988Z,101271.66
2023-06-11T19:54:00.526Z,101277.34
2023-06-11T19:56:32.059Z,101270.91
2023-06-11T19:59:03.848Z,101281.94
2023-06-11T20:01:35.584Z,101284.69
2023-06-11T20:04:07.586Z,101277.50
2023-06-11T20:06:39.510Z,101296.44
2023-06-11T20:09:11.115Z,101291.72
2023-06-11T20:11:43.039Z,101288.81
2023-06-11T20:14:14.575Z,101290.94
2023-06-11T20:16:46.580Z,101294.72
2023-06-11T20:19:18.295Z,101299.94
2023-06-11T20:21:50.140Z,101294.34
2023-06-11T20:24:21.758Z,101296.00
2023-06-11T20:26:53.758Z,101304.97
2023-06-11T20:29:25.777Z,101295.41
2023-06-11T20:31:57.660Z,101306.44
2023-06-11T20:34:29.481Z,101300.00
2023-06-11T20:37:01.013Z,101311.03
2023-06-11T20:39:33.066Z,101311.03
2023-06-11T20:42:04.782Z,101313.75
2023-06-11T20:44:36.800Z,101308.75
2023-06-11T20:47:08.380Z,101310.47
2023-06-11T20:49:40.502Z,101326.25
2023-06-11T20:52:13.123Z,101316.72
2023-06-11T20:54:44.939Z,101322.94
2023-06-11T20:57:16.504Z,101320.88
2023-06-11T20:59:48.490Z,101325.03
2023-06-11T21:02:20.435Z,101324.00
2023-06-11T21:04:52.410Z,101325.03
2023-06-11T21:07:24.352Z,101319.22
2023-06-11T21:09:55.848Z,101325.03
2023-06-11T21:12:27.699Z,101326.47
2023-06-11T21:14:59.207Z,101330.22
2023-06-11T21:17:31.129Z,101328.75
2023-06-11T21:20:02.664Z,101336.25
2023-06-11T21:22:34.177Z,101337.06
2023-06-11T21:25:05.674Z,101343.72
2023-06-11T21:27:37.590Z,101341.00
2023-06-11T21:30:09.200Z,101347.22
2023-06-11T21:32:41.128Z,101342.66
2023-06-11T21:35:13.128Z,101349.91
2023-06-11T21:37:44.927Z,101348.22
2023-06-11T21:40:16.943Z,101350.31
2023-06-11T21:42:48.671Z,101348.69
2023-06-11T21:45:20.611Z,101360.06
2023-06-11T21:47:52.152Z,101356.09
2023-06-11T21:50:24.004Z,101355.44
2023-06-11T21:52:55.490Z,101359.38
2023-06-11T21:55:27.370Z,101360.41
2023-06-11T21:57:58.888Z,101317.94
2023-06-11T22:00:30.439Z,101355.56
2023-06-11T22:03:02.071Z,101359.28
2023-06-11T22:05:33.853Z,101365.47
2023-06-11T22:08:05.808Z,101359.63
2023-06-11T22:10:37.782Z,101367.47
2023-06-11T22:13:09.649Z,101361.22
2023-06-11T22:15:41.195Z,101369.91
2023-06-11T22:18:13.075Z,101371.91
2023-06-11T22:20:44.742Z,101370.00
2023-06-11T22:23:16.594Z,101372.28
2023-06-11T22:25:48.126Z,101383.19
2023-06-11T22:28:20.098Z,101377.75
2023-06-11T22:30:56.821Z,101379.56
2023-06-11T22:33:29.218Z,101384.69
2023-06-11T22:36:00.722Z,101392.91
2023-06-11T22:38:32.627Z,101389.13
2023-06-11T22:41:04.237Z,101398.81
2023-06-11T22:43:36.071Z,101394.22
2023-06-11T22:46:07.892Z,101396.03
2023-06-11T22:48:39.410Z,101404.69
2023-06-11T22:51:11.351Z,101398.22
2023-06-11T22:53:42.863Z,101396.91
2023-06-11T22:56:14.625Z,101403.06
2023-06-11T22:58:46.134Z,101394.28
2023-06-11T23:01:18.025Z,101396.50
2023-06-11T23:03:49.520Z,101401.66
2023-06-11T23:06:21.398Z,101399.34
2023-06-11T23:08:52.920Z,101401.41
2023-06-11T23:11:24.729Z,101399.25
2023-06-11T23:13:56.580Z,101410.56
2023-06-11T23:16:28.453Z,101409.66
2023-06-11T23:19:00.531Z,101417.06
2023-06-11T23:21:32.082Z,101419.84
2023-06-11T23:24:04.029Z,101412.16
2023-06-11T23:26:35.557Z,101416.28
2023-06-11T23:29:07.235Z,101413.13
2023-06-11T23:31:38.780Z,101418.22
2023-06-11T23:34:10.603Z,101418.59
2023-06-11T23:36:42.093Z,101420.00
2023-06-11T23:39:13.955Z,101412.47
2023-06-11T23:41:45.444Z,101408.31
2023-06-11T23:44:17.320Z,101412.38
2023-06-11T23:46:48.894Z,101411.47
2023-06-11T23:49:20.697Z,101404.16
2023-06-11T23:51:52.512Z,101406.19
2023-06-11T23:54:24.001Z,101415.19
2023-06-11T23:56:55.838Z,101407.50
2023-06-11T23:59:27.332Z,101404.50
